Time;durP1;ratioP1;P1;durP2;ratioP2;P2;SDS_P1;SDS_P2;PMS_P1;PMS_P2;Temp;Humidity;BMP_temperature;BMP_pressure;BME280_temperature;BME280_humidity;BME280_pressure;Samples;Min_cycle;Max_cycle;Signal;HPM_P1;HPM_P2
2022/04/19 00:01:00;;;;;;;11.53;9.55;;;;;;;5.45;100.00;100007.61;1714089;83;21116;-74
2022/04/19 00:03:28;;;;;;;12.15;9.75;;;;;;;5.43;100.00;100018.50;1713904;82;21558;-79
2022/04/19 00:05:56;;;;;;;11.78;9.83;;;;;;;5.37;100.00;100000.34;1713479;83;20997;-76
2022/04/19 00:08:24;;;;;;;10.78;9.00;;;;;;;5.35;100.00;99988.02;1713220;82;21153;-75
2022/04/19 00:10:51;;;;;;;12.00;10.32;;;;;;;5.33;100.00;99984.69;1713214;83;20997;-74
2022/04/19 00:13:20;;;;;;;13.25;9.98;;;;;;;5.30;100.00;99979.27;1714167;83;21622;-74
2022/04/19 00:15:48;;;;;;;11.28;9.70;;;;;;;5.28;100.00;99981.58;1713927;82;21619;-75
2022/04/19 00:18:19;;;;;;;11.93;9.80;;;;;;;5.26;100.00;99971.33;1714159;82;21001;-78
2022/04/19 00:20:47;;;;;;;12.93;10.65;;;;;;;5.28;100.00;99979.00;1733092;82;21177;-75
2022/04/19 00:23:16;;;;;;;13.90;10.63;;;;;;;5.29;100.00;99966.47;1739163;82;22025;-75
2022/04/19 00:25:48;;;;;;;13.40;11.45;;;;;;;5.27;100.00;99971.70;1738531;82;21166;-74
2022/04/19 00:28:15;;;;;;;13.60;11.65;;;;;;;5.27;100.00;99958.80;1738492;82;21018;-74
2022/04/19 00:30:44;;;;;;;14.15;11.65;;;;;;;5.29;100.00;99963.41;1737729;82;21068;-75
2022/04/19 00:33:11;;;;;;;13.38;11.95;;;;;;;5.29;100.00;99955.66;1738771;82;21918;-75
2022/04/19 00:35:39;;;;;;;13.45;12.05;;;;;;;5.29;100.00;99953.55;1739134;82;21072;-75
2022/04/19 00:38:06;;;;;;;15.18;12.90;;;;;;;5.26;100.00;99946.81;1739347;82;21113;-74
2022/04/19 00:40:36;;;;;;;15.80;12.40;;;;;;;5.23;100.00;99956.05;1738836;82;21108;-74
2022/04/19 00:43:05;;;;;;;14.78;12.13;;;;;;;5.21;100.00;99953.55;1739008;82;21018;-74
2022/04/19 00:45:34;;;;;;;15.00;12.70;;;;;;;5.19;100.00;99951.55;1739236;82;21164;-78
2022/04/19 00:48:02;;;;;;;15.72;12.95;;;;;;;5.18;100.00;99952.47;1739096;82;21560;-79
2022/04/19 00:50:31;;;;;;;16.70;13.75;;;;;;;5.19;100.00;99947.68;1738620;82;21534;-75
2022/04/19 00:53:01;;;;;;;15.53;13.85;;;;;;;5.19;100.00;99946.39;1739028;82;21129;-74
2022/04/19 00:55:31;;;;;;;16.00;13.38;;;;;;;5.19;100.00;99952.84;1739324;82;21034;-74
2022/04/19 00:58:00;;;;;;;15.60;13.55;;;;;;;5.18;100.00;99951.18;1739581;82;22281;-74
2022/04/19 01:00:29;;;;;;;15.13;13.20;;;;;;;5.19;100.00;99961.88;1738942;82;21045;-75
2022/04/19 01:03:02;;;;;;;16.40;13.65;;;;;;;5.21;100.00;99970.33;1736558;82;21120;-75
2022/04/19 01:05:30;;;;;;;17.42;14.20;;;;;;;5.23;100.00;99956.05;1738794;82;21046;-73
2022/04/19 01:08:00;;;;;;;14.93;12.70;;;;;;;5.25;100.00;99957.24;1738911;82;21015;-75
2022/04/19 01:10:30;;;;;;;15.32;13.45;;;;;;;5.26;100.00;99971.80;1739146;82;21379;-76
2022/04/19 01:13:17;;;;;;;15.43;12.68;;;;;;;5.27;100.00;99975.58;1739110;82;21481;-75
2022/04/19 01:15:49;;;;;;;14.87;12.28;;;;;;;5.30;100.00;99981.00;1735302;82;21132;-74
2022/04/19 01:18:20;;;;;;;17.27;14.35;;;;;;;5.30;100.00;99974.10;1739144;82;21077;-74
2022/04/19 01:20:48;;;;;;;16.75;14.07;;;;;;;5.31;100.00;99973.62;1735908;82;21625;-75
2022/04/19 01:23:21;;;;;;;16.80;12.35;;;;;;;5.30;100.00;99980.55;1741700;82;21049;-75
2022/04/19 01:25:48;;;;;;;13.45;10.95;;;;;;;5.34;100.00;99987.64;1744880;82;21057;-75
2022/04/19 01:28:20;;;;;;;12.05;10.82;;;;;;;5.41;100.00;99997.95;1744042;82;21661;-75
2022/04/19 01:30:54;;;;;;;14.78;12.18;;;;;;;5.49;100.00;99986.67;1744573;82;21342;-75
2022/04/19 01:33:24;;;;;;;13.15;11.73;;;;;;;5.56;100.00;99983.69;1744647;82;21037;-75
2022/04/19 01:35:53;;;;;;;14.30;12.03;;;;;;;5.58;100.00;99985.23;1697987;83;21984;-75
2022/04/19 01:38:21;;;;;;;15.00;12.82;;;;;;;5.56;100.00;99970.77;1745552;82;21661;-74
2022/04/19 01:40:49;;;;;;;15.48;12.93;;;;;;;5.49;100.00;99968.59;1719738;83;21124;-74
2022/04/19 01:43:19;;;;;;;15.72;13.10;;;;;;;5.44;100.00;99977.55;1742339;82;21060;-78
2022/04/19 01:45:50;;;;;;;14.78;13.05;;;;;;;5.44;100.00;99985.30;1743457;82;21033;-75
2022/04/19 01:48:19;;;;;;;14.95;12.93;;;;;;;5.43;100.00;99976.73;1743248;82;21891;-75
2022/04/19 01:50:49;;;;;;;14.10;12.58;;;;;;;5.42;100.00;99978.11;1719055;83;21038;-75
2022/04/19 01:53:16;;;;;;;14.05;12.35;;;;;;;5.41;100.00;99971.31;1719170;83;21060;-74
2022/04/19 01:55:44;;;;;;;15.43;12.10;;;;;;;5.41;100.00;99975.18;1719820;83;21070;-74
2022/04/19 01:58:13;;;;;;;16.82;13.28;;;;;;;5.42;100.00;99982.82;1716452;83;21670;-75
2022/04/19 02:00:42;;;;;;;16.07;13.13;;;;;;;5.41;100.00;99973.89;1715683;83;21890;-78
2022/04/19 02:03:12;;;;;;;16.62;13.18;;;;;;;5.37;100.00;99982.27;1719219;83;21054;-75
2022/04/19 02:05:39;;;;;;;15.98;13.00;;;;;;;5.34;100.00;99976.84;1741490;82;21058;-75
2022/04/19 02:08:07;;;;;;;16.10;12.85;;;;;;;5.33;100.00;99985.50;1742548;82;21537;-74
2022/04/19 02:10:36;;;;;;;15.00;12.35;;;;;;;5.30;100.00;99977.98;1715982;82;22001;-74
2022/04/19 02:13:05;;;;;;;16.10;13.18;;;;;;;5.27;100.00;99968.30;1744841;82;21086;-78
2022/04/19 02:15:32;;;;;;;18.23;13.20;;;;;;;5.25;100.00;99963.70;1745230;81;21043;-74
2022/04/19 02:18:15;;;;;;;15.50;12.98;;;;;;;5.27;100.00;99963.14;1744188;82;21114;-75
2022/04/19 02:20:45;;;;;;;17.52;12.50;;;;;;;5.24;100.00;99959.01;1741960;81;21036;-74
2022/04/19 02:23:13;;;;;;;15.70;12.40;;;;;;;5.23;100.00;99964.24;1737497;82;21676;-74
2022/04/19 02:25:41;;;;;;;14.80;12.20;;;;;;;5.22;100.00;99967.30;1737231;81;21081;-79
2022/04/19 02:28:12;;;;;;;14.25;12.05;;;;;;;5.21;100.00;99981.13;1735925;82;21028;-75
2022/04/19 02:30:46;;;;;;;14.45;11.83;;;;;;;5.21;100.00;99987.58;1735700;82;21016;-74
2022/04/19 02:33:15;;;;;;;14.50;12.37;;;;;;;5.20;100.00;99973.86;1736198;81;21194;-74
2022/04/19 02:35:43;;;;;;;16.35;12.98;;;;;;;5.19;100.00;99961.88;1737495;82;21084;-80
2022/04/19 02:38:11;;;;;;;14.73;12.43;;;;;;;5.18;100.00;99970.98;1733524;81;21608;-76
2022/04/19 02:40:42;;;;;;;14.98;13.38;;;;;;;5.19;100.00;99971.36;1732326;82;21060;-75
2022/04/19 02:43:11;;;;;;;15.43;13.00;;;;;;;5.18;100.00;99974.41;1737041;82;21057;-78
2022/04/19 02:45:39;;;;;;;15.90;12.88;;;;;;;5.18;100.00;99965.83;1737703;82;21069;-76
2022/04/19 02:48:08;;;;;;;15.53;12.60;;;;;;;5.18;100.00;99967.96;1737474;82;21098;-75
2022/04/19 02:50:44;;;;;;;16.15;12.75;;;;;;;5.16;100.00;99955.61;1714230;82;21926;-74
2022/04/19 02:53:14;;;;;;;14.78;12.33;;;;;;;5.15;100.00;99950.55;1737615;82;20991;-77
2022/04/19 02:55:43;;;;;;;14.65;12.65;;;;;;;5.15;100.00;99958.30;1737586;82;21603;-77
2022/04/19 02:58:11;;;;;;;15.23;12.28;;;;;;;5.16;100.00;99967.70;1737323;82;22007;-76
2022/04/19 03:00:40;;;;;;;15.98;13.25;;;;;;;5.18;100.00;99964.53;1737304;82;21335;-79
2022/04/19 03:03:09;;;;;;;15.90;13.18;;;;;;;5.18;100.00;99957.64;1737720;82;21196;-78
2022/04/19 03:05:40;;;;;;;15.25;13.43;;;;;;;5.20;100.00;99951.08;1737861;82;21484;-78
2022/04/19 03:08:08;;;;;;;16.97;13.98;;;;;;;5.21;100.00;99953.55;1737381;82;21109;-75
2022/04/19 03:10:37;;;;;;;15.53;13.88;;;;;;;5.20;100.00;99951.92;1737813;82;21002;-74
2022/04/19 03:13:06;;;;;;;16.77;14.13;;;;;;;5.22;100.00;99941.48;1716526;82;21033;-77
2022/04/19 03:15:37;;;;;;;16.67;13.60;;;;;;;5.21;100.00;99939.83;1734646;82;21025;-78
2022/04/19 03:18:06;;;;;;;18.75;13.93;;;;;;;5.23;100.00;99941.02;1736951;82;20994;-75
2022/04/19 03:20:36;;;;;;;16.90;14.65;;;;;;;5.23;100.00;99937.98;1738592;82;21106;-74
2022/04/19 03:28:40;;;;;;;16.55;13.03;;;;;;;5.27;100.00;99948.47;1747079;81;21186;-75
2022/04/19 03:31:08;;;;;;;14.63;12.23;;;;;;;5.27;100.00;99940.72;1742250;82;21630;-78
2022/04/19 03:33:38;;;;;;;14.13;12.63;;;;;;;5.27;100.00;99940.72;1742605;82;21590;-75
2022/04/19 03:36:08;;;;;;;18.57;13.55;;;;;;;5.29;100.00;99950.50;1712371;83;21057;-74
2022/04/19 03:38:37;;;;;;;15.83;13.10;;;;;;;5.31;100.00;99954.27;1719230;83;21022;-74
2022/04/19 03:41:04;;;;;;;17.67;13.68;;;;;;;5.31;100.00;99950.39;1718710;82;21217;-74
2022/04/19 03:43:33;;;;;;;15.23;12.95;;;;;;;5.30;100.00;99952.16;1718539;82;21516;-74
2022/04/19 03:46:00;;;;;;;15.80;13.18;;;;;;;5.31;100.00;99960.27;1719086;83;21861;-75
2022/04/19 03:48:28;;;;;;;14.68;12.30;;;;;;;5.34;100.00;99960.53;1719266;83;20982;-75
2022/04/19 03:50:57;;;;;;;16.17;13.30;;;;;;;5.34;100.00;99955.37;1719635;82;21065;-79
2022/04/19 03:53:25;;;;;;;16.57;13.30;;;;;;;5.35;100.00;99958.32;1719105;82;21119;-78
2022/04/19 03:55:53;;;;;;;17.82;13.55;;;;;;;5.36;100.00;99960.80;1719508;83;21038;-79
2022/04/19 03:58:20;;;;;;;14.95;12.70;;;;;;;5.36;100.00;99962.56;1719133;83;21065;-76
2022/04/19 04:00:49;;;;;;;17.07;13.35;;;;;;;5.36;100.00;99964.67;1718705;83;21112;-75
2022/04/19 04:03:17;;;;;;;15.20;12.47;;;;;;;5.40;100.00;99967.88;1719119;82;21109;-73
2022/04/19 04:05:45;;;;;;;15.58;12.13;;;;;;;5.44;100.00;99963.34;1719056;83;21305;-75
2022/04/19 04:08:15;;;;;;;16.10;13.13;;;;;;;5.48;100.00;99966.11;1719468;82;21535;-75
2022/04/19 04:10:51;;;;;;;14.70;11.85;;;;;;;5.50;100.00;99971.54;1716057;83;21158;-75
2022/04/19 04:13:20;;;;;;;15.43;11.63;;;;;;;5.53;100.00;99980.84;1719515;83;21061;-74
2022/04/19 04:15:48;;;;;;;14.40;11.93;;;;;;;5.53;100.00;99977.78;1718782;81;21057;-79
2022/04/19 04:18:15;;;;;;;14.28;11.22;;;;;;;5.54;100.00;99974.75;1718139;83;21191;-76
2022/04/19 04:20:44;;;;;;;14.43;10.88;;;;;;;5.57;100.00;99982.28;1717708;83;21041;-74
2022/04/19 04:23:11;;;;;;;13.32;10.00;;;;;;;5.61;100.00;99988.11;1719348;82;21033;-74
2022/04/19 04:25:40;;;;;;;13.05;9.55;;;;;;;5.61;100.00;99991.98;1719292;83;21547;-74
2022/04/19 04:28:09;;;;;;;14.93;10.48;;;;;;;5.65;100.00;99993.42;1746506;81;21088;-74
2022/04/19 04:30:41;;;;;;;12.58;9.10;;;;;;;5.66;100.00;99990.73;1743676;82;21025;-75
2022/04/19 04:33:10;;;;;;;10.87;8.53;;;;;;;5.70;100.00;99992.66;1739042;80;21281;-75
2022/04/19 04:35:37;;;;;;;12.05;8.98;;;;;;;5.72;100.00;99997.75;1729788;81;21540;-74
2022/04/19 04:38:05;;;;;;;11.33;8.35;;;;;;;5.73;100.00;100014.91;1746818;80;21072;-74
2022/04/19 04:40:34;;;;;;;12.82;8.08;;;;;;;5.73;100.00;100018.78;1736018;80;21527;-75
2022/04/19 04:43:06;;;;;;;11.35;8.33;;;;;;;5.72;100.00;100020.52;1743706;80;21977;-79
2022/04/19 04:45:35;;;;;;;11.75;8.60;;;;;;;5.74;100.00;100021.26;1745865;81;21340;-76
2022/04/19 04:50:52;;;;;;;10.68;8.58;;;;;;;5.76;100.00;100006.94;1734104;82;21107;-75
2022/04/19 04:53:21;;;;;;;12.53;8.55;;;;;;;5.75;100.00;100007.86;1734007;82;21099;-75
2022/04/19 04:55:51;;;;;;;11.12;9.08;;;;;;;5.78;100.00;100006.39;1733860;82;21175;-75
2022/04/19 04:58:20;;;;;;;13.28;8.95;;;;;;;5.77;100.00;100010.70;1736047;82;20961;-74
2022/04/19 05:00:47;;;;;;;12.65;8.98;;;;;;;5.80;100.00;100027.31;1747234;80;21093;-75
2022/04/19 05:03:15;;;;;;;11.28;8.45;;;;;;;5.84;100.00;100027.94;1745972;80;21578;-74
2022/04/19 05:05:44;;;;;;;12.03;8.50;;;;;;;5.86;100.00;100020.92;1747364;80;21017;-74
2022/04/19 05:08:14;;;;;;;12.95;9.35;;;;;;;5.88;100.00;100032.00;1747430;82;21037;-75
2022/04/19 05:10:43;;;;;;;17.37;8.45;;;;;;;5.90;100.00;100034.00;1745839;82;20976;-74
2022/04/19 05:13:12;;;;;;;13.60;9.53;;;;;;;5.92;100.00;100032.63;1743687;82;21021;-75
2022/04/19 05:15:41;;;;;;;11.95;8.50;;;;;;;5.92;100.00;100028.75;1746771;80;21088;-75
2022/04/19 05:18:08;;;;;;;12.50;8.90;;;;;;;5.90;100.00;100031.41;1723400;82;21036;-74
2022/04/19 05:20:36;;;;;;;13.13;8.58;;;;;;;5.93;100.00;100031.23;1746171;80;21842;-74
2022/04/19 05:23:05;;;;;;;11.40;7.80;;;;;;;5.92;100.00;100019.23;1746212;81;37428;-75
2022/04/19 05:25:32;;;;;;;13.98;8.48;;;;;;;5.91;100.00;100023.22;1743323;82;21029;-75
2022/04/19 05:28:00;;;;;;;12.53;8.18;;;;;;;5.88;100.00;100029.42;1734041;80;21073;-74
2022/04/19 05:30:27;;;;;;;10.95;8.30;;;;;;;5.86;100.00;100027.39;1746903;80;21480;-78
2022/04/19 05:32:57;;;;;;;14.03;8.68;;;;;;;5.87;100.00;100034.22;1746970;81;21062;-75
2022/04/19 05:35:24;;;;;;;12.95;9.28;;;;;;;5.90;100.00;100038.35;1741115;82;21394;-78
2022/04/19 05:37:52;;;;;;;13.80;8.70;;;;;;;5.92;100.00;100048.14;1747077;82;21041;-75
2022/04/19 05:40:20;;;;;;;11.28;8.23;;;;;;;5.95;100.00;100051.80;1730532;80;21548;-74
2022/04/19 05:42:48;;;;;;;11.85;8.48;;;;;;;5.96;100.00;100040.53;1744834;81;21076;-74
2022/04/19 05:45:16;;;;;;;13.75;8.90;;;;;;;5.99;100.00;100046.36;1743537;82;21180;-76
2022/04/19 05:47:44;;;;;;;14.30;9.10;;;;;;;6.01;100.00;100038.50;1742697;82;21046;-74
2022/04/19 05:50:11;;;;;;;12.35;8.20;;;;;;;6.02;100.00;100036.76;1747096;82;21500;-75
2022/04/19 05:52:42;;;;;;;15.32;8.98;;;;;;;6.04;100.00;100031.03;1746825;80;21014;-74
2022/04/19 05:55:13;;;;;;;12.93;8.93;;;;;;;6.03;100.00;100028.08;1743754;82;21053;-79
2022/04/19 05:57:41;;;;;;;15.35;9.53;;;;;;;6.03;100.00;100025.02;1725621;80;21185;-78
2022/04/19 06:00:09;;;;;;;15.80;9.05;;;;;;;6.03;100.00;100011.28;1747110;82;21034;-75
2022/04/19 06:05:31;;;;;;;17.80;10.25;;;;;;;5.98;100.00;99996.04;1725779;81;21859;-74
2022/04/19 06:08:00;;;;;;;21.00;11.53;;;;;;;5.99;100.00;99997.73;1746900;82;21068;-74
2022/04/19 06:10:29;;;;;;;14.43;9.83;;;;;;;6.00;100.00;100027.82;1747233;82;21194;-75
2022/04/19 06:12:58;;;;;;;15.50;10.58;;;;;;;5.97;100.00;100021.04;1747598;82;21045;-75
2022/04/19 06:15:27;;;;;;;17.98;11.10;;;;;;;5.96;100.00;100022.44;1747112;82;21077;-74
2022/04/19 06:17:56;;;;;;;15.50;11.20;;;;;;;5.97;100.00;100056.41;1747185;82;21085;-75
2022/04/19 06:20:34;;;;;;;16.75;11.15;;;;;;;6.00;100.00;100049.79;1743941;82;21029;-79
2022/04/19 06:23:01;;;;;;;15.93;10.70;;;;;;;6.02;100.00;100047.91;1747033;81;21045;-76
2022/04/19 06:25:31;;;;;;;16.57;11.38;;;;;;;6.04;100.00;100068.52;1746842;82;21081;-75
2022/04/19 06:27:58;;;;;;;16.20;10.15;;;;;;;6.05;100.00;100059.36;1746994;82;21664;-75
2022/04/19 06:30:27;;;;;;;16.97;9.95;;;;;;;6.06;100.00;100057.14;1721231;82;21550;-75
2022/04/19 06:32:54;;;;;;;16.00;10.25;;;;;;;6.08;100.00;100068.66;1742210;80;21559;-73
2022/04/19 06:35:29;;;;;;;14.75;9.53;;;;;;;6.04;100.00;100078.38;1730104;80;21103;-74
2022/04/19 06:37:59;;;;;;;14.55;9.60;;;;;;;6.06;100.00;100076.97;1757920;80;21089;-76
2022/04/19 06:40:27;;;;;;;15.48;10.00;;;;;;;6.07;100.00;100079.92;1756476;80;21049;-77
2022/04/19 06:42:57;;;;;;;15.08;9.93;;;;;;;6.09;100.00;100094.41;1749303;82;21468;-76
2022/04/19 06:45:25;;;;;;;15.68;10.28;;;;;;;6.12;100.00;100099.86;1776181;80;25378;-75
2022/04/19 06:48:01;;;;;;;16.45;10.30;;;;;;;6.14;100.00;100092.81;1778253;80;21890;-75
2022/04/19 06:50:30;;;;;;;15.08;9.83;;;;;;;6.18;100.00;100103.34;1774384;80;21550;-75
2022/04/19 06:52:59;;;;;;;13.85;10.05;;;;;;;6.19;100.00;100102.86;1774438;80;21041;-76
2022/04/19 06:55:38;;;;;;;18.73;10.63;;;;;;;6.19;100.00;100100.27;1744677;80;21005;-75
2022/04/19 06:58:07;;;;;;;15.78;10.75;;;;;;;6.21;100.00;100082.44;1748892;82;21038;-75
2022/04/19 07:00:35;;;;;;;15.40;10.18;;;;;;;6.26;100.00;100076.52;1748887;81;21216;-75
2022/04/19 07:03:03;;;;;;;15.03;10.30;;;;;;;6.35;100.00;100069.08;1749170;82;21042;-77
2022/04/19 07:05:45;;;;;;;15.75;10.00;;;;;;;6.39;100.00;100078.28;1718596;82;21407;-75
2022/04/19 07:08:13;;;;;;;17.55;10.80;;;;;;;6.44;100.00;100082.70;1748605;82;20958;-75
2022/04/19 07:10:42;;;;;;;15.38;10.40;;;;;;;6.47;100.00;100073.43;1749079;81;21076;-74
2022/04/19 07:13:14;;;;;;;14.53;9.93;;;;;;;6.48;100.00;100082.84;1748492;82;21674;-75
2022/04/19 07:15:45;;;;;;;14.00;10.75;;;;;;;6.49;100.00;100072.88;1756187;80;21268;-79
2022/04/19 07:18:15;;;;;;;17.55;11.68;;;;;;;6.49;100.00;100063.81;1749110;82;22189;-73
2022/04/19 07:29:02;;;;;;;16.30;10.63;;;;;;;6.44;100.00;100049.89;1740416;82;21010;-75
2022/04/19 07:31:32;;;;;;;13.72;9.93;;;;;;;6.42;100.00;100038.81;1740880;82;21092;-76
2022/04/19 07:34:03;;;;;;;16.52;11.18;;;;;;;6.37;100.00;100033.61;1758902;81;21015;-75
2022/04/19 07:36:31;;;;;;;16.02;11.18;;;;;;;6.35;100.00;100028.52;1741095;82;21005;-75
2022/04/19 07:38:59;;;;;;;16.35;11.50;;;;;;;6.31;100.00;100042.60;1740658;82;21100;-74
2022/04/19 07:41:31;;;;;;;15.32;10.50;;;;;;;6.29;100.00;100054.80;1740409;82;21081;-74
2022/04/19 07:43:58;;;;;;;13.45;7.00;;;;;;;6.27;100.00;100035.52;1740994;82;21015;-76
2022/04/19 07:46:26;;;;;;;13.30;8.90;;;;;;;6.25;100.00;99971.91;1758891;81;21228;-75
2022/04/19 07:48:53;;;;;;;14.93;8.20;;;;;;;6.25;100.00;99877.06;1758774;81;21007;-74
2022/04/19 07:51:21;;;;;;;10.63;6.22;;;;;;;6.25;100.00;99831.81;1758646;81;21062;-75
2022/04/19 07:53:49;;;;;;;13.90;9.40;;;;;;;6.31;100.00;99853.36;1759015;81;21556;-76
2022/04/19 07:56:19;;;;;;;13.05;7.20;;;;;;;6.45;100.00;99848.52;1759270;81;21639;-75
2022/04/19 07:58:47;;;;;;;16.57;12.03;;;;;;;6.57;100.00;99885.63;1758758;81;21105;-77
2022/04/19 08:01:18;;;;;;;18.70;13.03;;;;;;;6.65;100.00;99916.13;1740142;82;21050;-77
2022/04/19 08:03:48;;;;;;;19.10;13.13;;;;;;;6.76;100.00;99928.34;1738442;82;21624;-78
2022/04/19 08:06:19;;;;;;;17.25;12.20;;;;;;;6.91;100.00;99953.14;1719630;82;21105;-75
2022/04/19 08:08:47;;;;;;;18.50;12.82;;;;;;;7.02;100.00;99978.27;1740935;82;21172;-75
2022/04/19 08:11:16;;;;;;;17.50;11.80;;;;;;;7.10;100.00;100008.78;1740861;82;21010;-77
2022/04/19 08:13:45;;;;;;;13.95;10.88;;;;;;;7.06;100.00;100032.76;1720341;82;21574;-75
2022/04/19 08:16:13;;;;;;;13.50;10.70;;;;;;;7.09;100.00;100045.98;1740451;82;21551;-76
2022/04/19 08:18:42;;;;;;;13.30;10.43;;;;;;;7.18;100.00;100045.31;1740302;82;21105;-76
2022/04/19 08:21:09;;;;;;;13.35;10.88;;;;;;;7.26;100.00;100038.32;1680983;84;21043;-79
2022/04/19 08:23:39;;;;;;;14.73;10.00;;;;;;;7.29;100.00;100046.33;1741130;82;21073;-76
2022/04/19 08:26:10;;;;;;;10.25;7.22;;;;;;;7.31;100.00;100047.88;1744600;82;21048;-80
2022/04/19 08:28:38;;;;;;;10.08;8.05;;;;;;;7.35;100.00;100040.72;1747477;82;21643;-81
2022/04/19 08:31:07;;;;;;;10.95;8.25;;;;;;;7.42;100.00;100049.70;1747505;82;21508;-75
2022/04/19 08:33:36;;;;;;;11.73;8.58;;;;;;;7.48;100.00;100048.45;1746945;82;21077;-75
2022/04/19 08:36:06;;;;;;;8.25;6.87;;;;;;;7.48;100.00;100046.70;1747109;82;21044;-75
2022/04/19 08:38:35;;;;;;;10.72;7.97;;;;;;;7.51;100.00;100046.46;1747309;82;21044;-78
2022/04/19 08:41:03;;;;;;;12.25;8.78;;;;;;;7.63;100.00;100050.42;1747015;82;21560;-75
2022/04/19 08:43:31;;;;;;;11.03;8.33;;;;;;;7.76;100.00;100043.89;1726406;82;21014;-76
2022/04/19 08:45:58;;;;;;;13.80;9.70;;;;;;;7.95;100.00;100039.00;1747209;82;21622;-74
2022/04/19 08:48:27;;;;;;;15.80;10.60;;;;;;;8.07;100.00;100036.45;1747201;82;21049;-74
2022/04/19 08:50:55;;;;;;;17.60;10.72;;;;;;;8.09;100.00;100034.09;1746994;81;21093;-78
2022/04/19 08:58:49;;;;;;;16.17;12.58;;;;;;;8.31;100.00;100041.12;1708978;81;21045;-76
2022/04/19 09:01:17;;;;;;;16.62;11.03;;;;;;;8.33;100.00;100056.08;1701584;81;21873;-76
2022/04/19 09:03:47;;;;;;;13.20;9.08;;;;;;;8.34;100.00;100070.70;1746348;82;21124;-76
2022/04/19 09:06:16;;;;;;;10.90;7.95;;;;;;;8.43;100.00;100073.55;1749585;80;21147;-76
2022/04/19 09:09:09;;;;;;;12.23;8.25;;;;;;;8.58;100.00;100062.05;1730818;80;20955;-77
2022/04/19 09:11:37;;;;;;;10.72;8.55;;;;;;;8.74;100.00;100062.19;1707818;81;21028;-76
2022/04/19 09:14:07;;;;;;;10.85;8.98;;;;;;;8.89;100.00;100071.88;1747279;82;21533;-76
2022/04/19 09:16:37;;;;;;;10.95;8.63;;;;;;;8.88;100.00;100077.55;1725459;82;21014;-76
2022/04/19 09:19:09;;;;;;;11.48;8.23;;;;;;;8.85;100.00;100077.78;1733899;82;21269;-76
2022/04/19 09:21:40;;;;;;;11.68;8.55;;;;;;;8.86;100.00;100071.64;1742223;81;21961;-75
2022/04/19 09:24:20;;;;;;;11.38;8.13;;;;;;;8.84;100.00;100067.87;1748905;80;21081;-75
2022/04/19 09:26:49;;;;;;;10.72;7.97;;;;;;;8.83;100.00;100064.08;1746962;81;21694;-76
2022/04/19 09:29:27;;;;;;;10.55;8.10;;;;;;;8.80;100.00;100066.93;1746294;81;21806;-77
2022/04/19 09:31:58;;;;;;;14.65;8.38;;;;;;;8.71;100.00;100067.63;1728037;82;21223;-78
2022/04/19 09:34:34;;;;;;;13.22;8.13;;;;;;;8.66;100.00;100069.27;1741444;81;21737;-80
2022/04/19 09:37:11;;;;;;;12.98;7.58;;;;;;;8.66;100.00;100074.46;1740500;81;21492;-76
2022/04/19 09:39:44;;;;;;;11.73;7.62;;;;;;;8.64;100.00;100074.59;1747006;82;21185;-76
2022/04/19 09:42:18;;;;;;;10.58;7.15;;;;;;;8.58;100.00;100088.48;1746925;82;21085;-77
2022/04/19 09:44:46;;;;;;;;;;;;;;;8.52;100.00;100104.88;1748828;82;21811;-78
2022/04/19 09:47:15;;;;;;;11.43;7.17;;;;;;;8.46;100.00;100106.59;1747117;80;20186;-77
2022/04/19 09:49:54;;;;;;;9.83;6.70;;;;;;;8.36;100.00;100106.94;1769096;80;21094;-80
2022/04/19 09:52:27;;;;;;;9.95;7.25;;;;;;;8.28;100.00;100102.30;1746320;82;21055;-77
2022/04/19 09:55:04;;;;;;;10.20;7.10;;;;;;;8.24;100.00;100101.33;1771072;80;21046;-77
2022/04/19 09:57:36;;;;;;;15.50;11.70;;;;;;;8.24;100.00;100107.37;1740460;81;21833;-82
2022/04/19 10:00:12;;;;;;;11.05;7.90;;;;;;;8.24;100.00;100115.60;1728216;81;21077;-78
2022/04/19 10:08:19;;;;;;;9.13;7.17;;;;;;;8.11;100.00;100116.52;1733941;80;21074;-77
2022/04/19 10:10:50;;;;;;;9.55;7.22;;;;;;;8.13;100.00;100127.58;1746442;80;21603;-78
2022/04/19 10:13:23;;;;;;;11.08;7.30;;;;;;;8.12;100.00;100125.95;1772171;80;21556;-78
2022/04/19 10:15:53;;;;;;;10.60;6.83;;;;;;;8.10;100.00;100120.48;1745185;82;21853;-76
2022/04/19 10:18:21;;;;;;;10.80;6.83;;;;;;;8.09;100.00;100114.97;1742947;81;21411;-76
2022/04/19 10:21:00;;;;;;;12.68;7.00;;;;;;;8.12;100.00;100121.22;1746015;81;21171;-76
2022/04/19 10:23:39;;;;;;;8.48;6.12;;;;;;;8.11;100.00;100122.99;1742724;81;21919;-77
2022/04/19 10:26:24;;;;;;;9.88;6.80;;;;;;;8.14;100.00;100129.23;1751392;81;21072;-80
2022/04/19 10:28:58;;;;;;;8.68;5.90;;;;;;;8.17;100.00;100116.54;1743433;81;21504;-76
2022/04/19 10:31:31;;;;;;;8.35;6.33;;;;;;;8.16;100.00;100108.39;1735757;81;21052;-80
2022/04/19 10:34:07;;;;;;;7.50;5.87;;;;;;;8.16;100.00;100116.99;1749442;80;21717;-76
2022/04/19 10:36:37;;;;;;;7.65;5.70;;;;;;;8.14;100.00;100109.78;1752223;81;21212;-77
2022/04/19 10:39:19;;;;;;;8.73;5.95;;;;;;;8.13;100.00;100098.23;1755459;80;21040;-80
2022/04/19 10:41:57;;;;;;;10.65;6.72;;;;;;;8.14;100.00;100089.03;1756013;80;21054;-79
2022/04/19 10:44:36;;;;;;;9.48;6.33;;;;;;;8.11;100.00;100078.91;1725767;82;21076;-77
2022/04/19 10:47:18;;;;;;;9.70;7.08;;;;;;;8.05;100.00;100070.29;1727386;81;21145;-79
2022/04/19 10:50:05;;;;;;;8.35;6.20;;;;;;;7.99;100.00;100073.30;1732554;82;21301;-77
2022/04/19 10:52:43;;;;;;;10.93;6.40;;;;;;;7.98;100.00;100073.79;1733329;81;21053;-77
2022/04/19 10:55:22;;;;;;;9.08;6.42;;;;;;;8.00;100.00;100096.55;1740046;81;21079;-80
2022/04/19 11:00:59;;;;;;;8.63;6.35;;;;;;;8.07;100.00;100108.58;1733917;82;21068;-76
2022/04/19 11:03:46;;;;;;;8.03;5.70;;;;;;;8.08;100.00;100110.72;1664607;84;21868;-76
2022/04/19 11:06:37;;;;;;;8.68;6.50;;;;;;;8.10;100.00;100129.56;1684057;84;21068;-78
2022/04/19 11:09:12;;;;;;;8.50;6.00;;;;;;;8.11;100.00;100128.18;1686006;84;20952;-76
2022/04/19 11:12:10;;;;;;;9.03;5.87;;;;;;;8.11;100.00;100132.52;1684543;85;21054;-76
2022/04/19 11:14:43;;;;;;;6.95;5.10;;;;;;;8.11;100.00;100148.92;1705535;83;21042;-76
2022/04/19 11:17:28;;;;;;;8.03;5.12;;;;;;;8.12;100.00;100140.66;1689024;83;21834;-75
2022/04/19 11:20:10;;;;;;;7.47;5.55;;;;;;;8.09;100.00;100134.42;1685792;85;21631;-76
2022/04/19 11:22:57;;;;;;;6.05;5.20;;;;;;;8.07;100.00;100141.48;1685374;84;21066;-76
2022/04/19 11:25:43;;;;;;;6.33;4.67;;;;;;;8.07;100.00;100133.22;1678044;85;21165;-81
2022/04/19 11:28:22;;;;;;;6.80;5.17;;;;;;;8.09;100.00;100121.45;1657766;84;21108;-81
2022/04/19 11:30:59;;;;;;;5.95;4.67;;;;;;;8.12;100.00;100124.66;1637622;86;21920;-76
2022/04/19 11:33:33;;;;;;;6.03;4.67;;;;;;;8.17;100.00;100141.99;1671119;83;21010;-81
2022/04/19 11:36:11;;;;;;;5.72;4.65;;;;;;;8.20;100.00;100136.59;1721841;80;21015;-77
2022/04/19 11:38:48;;;;;;;4.83;3.90;;;;;;;8.23;100.00;100137.28;1677883;83;21745;-76
2022/04/19 11:46:48;;;;;;;6.78;4.95;;;;;;;8.24;100.00;100123.38;1657874;84;21794;-80
2022/04/19 11:49:35;;;;;;;5.62;4.55;;;;;;;8.30;100.00;100125.52;1659693;84;21061;-77
2022/04/19 11:52:11;;;;;;;5.20;4.42;;;;;;;8.38;100.00;100120.59;1674154;83;21284;-76
2022/04/19 11:54:41;;;;;;;8.15;5.00;;;;;;;8.46;100.00;100122.16;1656036;86;21576;-79
2022/04/19 11:57:11;;;;;;;6.08;4.42;;;;;;;8.46;100.00;100122.16;1679980;85;21642;-76
2022/04/19 11:59:41;;;;;;;5.22;4.60;;;;;;;8.43;100.00;100143.16;1686072;83;21565;-76
2022/04/19 12:02:18;;;;;;;39.53;31.85;;;;;;;8.40;100.00;100145.16;1682314;83;21725;-84
2022/04/19 12:04:54;;;;;;;12.95;11.43;;;;;;;8.37;100.00;100156.59;1668125;84;21060;-76
2022/04/19 12:07:25;;;;;;;13.38;11.97;;;;;;;8.40;100.00;100151.64;1663811;84;21449;-76
2022/04/19 12:09:58;;;;;;;18.73;15.30;;;;;;;8.40;100.00;100157.64;1632108;85;21083;-76
2022/04/19 12:12:27;;;;;;;15.25;12.85;;;;;;;8.45;100.00;100154.71;1639868;86;21628;-76